createdAt,value
2019-03-02T00:01:42.094Z,7.80
2019-03-02T00:04:10.981Z,8.20
2019-03-02T00:06:37.941Z,8.17
2019-03-02T00:09:04.899Z,9.33
2019-03-02T00:11:31.856Z,8.47
2019-03-02T00:13:58.613Z,10.57
2019-03-02T00:16:25.284Z,6.57
2019-03-02T00:18:52.465Z,8.47
2019-03-02T00:21:19.915Z,8.63
2019-03-02T00:23:46.734Z,6.80
2019-03-02T00:26:13.666Z,5.23
2019-03-02T00:28:40.564Z,6.47
2019-03-02T00:31:07.692Z,5.65
2019-03-02T00:33:34.640Z,6.43
2019-03-02T00:36:01.974Z,4.80
2019-03-02T00:38:28.622Z,5.93
2019-03-02T00:40:55.631Z,4.42
2019-03-02T00:43:23.643Z,4.20
2019-03-02T00:45:50.874Z,5.70
2019-03-02T00:48:18.017Z,6.13
2019-03-02T00:50:46.183Z,4.87
2019-03-02T00:53:12.964Z,6.70
2019-03-02T00:55:39.996Z,4.57
2019-03-02T00:58:06.868Z,4.77
2019-03-02T01:00:33.821Z,6.30
2019-03-02T01:03:00.654Z,6.20
2019-03-02T01:05:27.286Z,5.15
2019-03-02T01:07:55.979Z,6.00
2019-03-02T01:10:22.646Z,4.40
2019-03-02T01:12:50.394Z,5.80
2019-03-02T01:15:17.667Z,4.30
2019-03-02T01:17:45.489Z,5.03
2019-03-02T01:20:12.400Z,5.47
2019-03-02T01:25:23.648Z,7.07
2019-03-02T01:27:50.665Z,4.50
2019-03-02T01:30:17.544Z,4.10
2019-03-02T01:32:44.192Z,4.40
2019-03-02T01:35:12.249Z,3.87
2019-03-02T01:37:39.946Z,6.00
2019-03-02T01:40:07.779Z,4.20
2019-03-02T01:42:34.608Z,5.03
2019-03-02T01:45:01.263Z,5.72
2019-03-02T01:47:28.077Z,4.23
2019-03-02T01:49:54.837Z,3.75
2019-03-02T01:52:21.633Z,5.33
2019-03-02T01:54:48.650Z,4.08
2019-03-02T01:57:17.192Z,5.07
2019-03-02T01:59:43.917Z,4.57
2019-03-02T02:02:10.651Z,4.37
2019-03-02T02:04:37.265Z,4.33
2019-03-02T02:07:04.590Z,3.50
2019-03-02T02:09:31.415Z,3.63
2019-03-02T02:11:58.089Z,3.80
2019-03-02T02:14:25.574Z,3.40
2019-03-02T02:16:52.758Z,3.57
2019-03-02T02:19:19.664Z,3.45
2019-03-02T02:21:46.304Z,3.47
2019-03-02T02:24:14.305Z,3.42
2019-03-02T02:26:43.897Z,3.17
2019-03-02T02:29:09.557Z,2.80
2019-03-02T02:31:44.580Z,3.40
2019-03-02T02:34:05.564Z,3.17
2019-03-02T02:36:32.248Z,3.45
2019-03-02T02:38:59.467Z,5.67
2019-03-02T02:41:26.540Z,3.52
2019-03-02T02:43:54.384Z,3.17
2019-03-02T02:46:22.090Z,3.80
2019-03-02T02:48:48.737Z,3.75
2019-03-02T02:51:15.591Z,3.97
2019-03-02T02:53:45.015Z,3.33
2019-03-02T02:56:14.515Z,3.80
2019-03-02T02:58:39.281Z,5.03
2019-03-02T03:01:06.009Z,5.53
2019-03-02T03:03:33.066Z,4.62
2019-03-02T03:06:09.199Z,4.33
2019-03-02T03:08:36.053Z,5.53
2019-03-02T03:11:06.600Z,5.40
2019-03-02T03:13:36.016Z,4.00
2019-03-02T03:15:59.898Z,4.28
2019-03-02T03:18:26.564Z,3.43
2019-03-02T03:20:53.470Z,3.80
2019-03-02T03:23:24.954Z,3.20
2019-03-02T03:25:55.896Z,3.20
2019-03-02T03:28:17.400Z,2.93
2019-03-02T03:30:46.434Z,3.40
2019-03-02T03:33:21.897Z,3.10
2019-03-02T03:35:51.776Z,3.47
2019-03-02T03:40:50.115Z,2.77
2019-03-02T03:43:16.901Z,2.93
2019-03-02T03:48:28.089Z,4.28
2019-03-02T03:50:54.815Z,3.07
2019-03-02T03:53:26.257Z,4.13
2019-03-02T03:55:50.349Z,3.33
2019-03-02T03:58:17.010Z,4.40
2019-03-02T04:00:43.984Z,4.23
2019-03-02T04:03:13.794Z,4.03
2019-03-02T04:05:42.039Z,4.57
2019-03-02T04:08:08.034Z,3.10
2019-03-02T04:10:35.931Z,3.15
2019-03-02T04:13:04.942Z,3.17
2019-03-02T04:15:40.876Z,3.62
2019-03-02T04:18:01.795Z,3.40
2019-03-02T04:20:31.014Z,5.63
2019-03-02T04:22:57.633Z,3.93
2019-03-02T04:25:24.523Z,3.90
2019-03-02T04:27:54.581Z,5.90
2019-03-02T04:30:20.783Z,3.43
2019-03-02T04:32:47.479Z,4.20
2019-03-02T04:35:14.385Z,5.15
2019-03-02T04:37:41.072Z,5.03
2019-03-02T04:40:07.721Z,3.17
2019-03-02T04:42:34.478Z,4.40
2019-03-02T04:45:01.589Z,3.57
2019-03-02T04:47:29.680Z,5.43
2019-03-02T04:49:56.571Z,3.67
2019-03-02T04:52:23.228Z,3.40
2019-03-02T04:54:49.966Z,4.57
2019-03-02T04:57:17.353Z,3.30
2019-03-02T04:59:44.052Z,4.17
2019-03-02T05:02:10.721Z,3.73
2019-03-02T05:04:37.439Z,3.93
2019-03-02T05:07:06.679Z,3.47
2019-03-02T05:09:36.329Z,3.37
2019-03-02T05:12:05.661Z,3.27
2019-03-02T05:14:32.274Z,3.50
2019-03-02T05:17:03.399Z,3.87
2019-03-02T05:19:29.946Z,3.47
2019-03-02T05:21:59.196Z,3.10
2019-03-02T05:24:26.966Z,3.50
2019-03-02T05:26:56.703Z,3.80
2019-03-02T05:29:22.324Z,4.53
2019-03-02T05:31:51.804Z,3.77
2019-03-02T05:34:21.842Z,3.47
2019-03-02T05:36:52.038Z,3.43
2019-03-02T05:39:22.598Z,3.12
2019-03-02T05:41:53.207Z,2.70
2019-03-02T05:44:21.291Z,3.97
2019-03-02T05:46:53.080Z,2.96
2019-03-02T05:49:20.448Z,2.63
2019-03-02T05:51:49.624Z,2.83
2019-03-02T05:54:16.553Z,2.87
2019-03-02T05:56:44.760Z,2.60
2019-03-02T05:59:26.665Z,2.67
2019-03-02T06:01:53.493Z,4.03
2019-03-02T06:04:22.099Z,2.83
2019-03-02T06:06:50.771Z,3.07
2019-03-02T06:09:18.085Z,2.80
2019-03-02T06:11:44.713Z,3.20
2019-03-02T06:14:13.789Z,3.20
2019-03-02T06:16:40.585Z,3.10
2019-03-02T06:19:07.502Z,3.42
2019-03-02T06:21:34.126Z,4.10
2019-03-02T06:24:01.599Z,3.57
2019-03-02T06:26:31.789Z,3.37
2019-03-02T06:28:58.017Z,3.62
2019-03-02T06:31:25.377Z,6.07
2019-03-02T06:33:52.172Z,3.80
2019-03-02T06:36:18.799Z,4.20
2019-03-02T06:38:45.434Z,4.30
2019-03-02T06:41:12.310Z,5.33
2019-03-02T06:43:39.660Z,6.05
2019-03-02T06:46:06.342Z,4.77
2019-03-02T06:48:32.929Z,5.03
2019-03-02T06:51:02.344Z,3.83
2019-03-02T06:53:28.240Z,3.80
2019-03-02T06:56:00.821Z,3.90
2019-03-02T06:58:29.310Z,3.50
2019-03-02T07:00:58.470Z,11.20
2019-03-02T07:03:25.435Z,5.07
2019-03-02T07:05:52.290Z,5.10
2019-03-02T07:08:19.225Z,4.37
2019-03-02T07:10:46.455Z,3.90
2019-03-02T07:13:13.793Z,4.77
2019-03-02T07:15:43.657Z,2.43
2019-03-02T07:18:09.020Z,3.93
2019-03-02T07:20:35.610Z,3.13
2019-03-02T07:23:02.645Z,3.10
2019-03-02T07:25:29.510Z,2.90
2019-03-02T07:27:56.650Z,3.17
2019-03-02T07:30:23.548Z,2.77
2019-03-02T07:32:50.752Z,3.22
2019-03-02T07:35:19.311Z,2.93
2019-03-02T07:37:46.753Z,3.33
2019-03-02T07:40:13.871Z,3.20
2019-03-02T07:42:40.808Z,3.40
2019-03-02T07:45:07.463Z,3.80
2019-03-02T07:47:34.047Z,4.03
2019-03-02T07:50:01.482Z,3.83
2019-03-02T07:52:28.665Z,3.83
2019-03-02T07:54:58.317Z,5.17
2019-03-02T07:57:24.050Z,4.30
2019-03-02T07:59:50.743Z,6.17
2019-03-02T08:02:17.353Z,4.70
2019-03-02T08:04:44.136Z,6.53
2019-03-02T08:07:11.041Z,5.10
2019-03-02T08:09:37.645Z,7.93
2019-03-02T08:12:04.465Z,7.33
2019-03-02T08:14:31.631Z,6.03
2019-03-02T08:16:58.448Z,4.37
2019-03-02T08:19:25.357Z,4.45
2019-03-02T08:21:51.950Z,4.95
2019-03-02T08:24:18.588Z,5.30
2019-03-02T08:26:46.147Z,7.47
2019-03-02T08:29:17.741Z,4.83
2019-03-02T08:34:35.313Z,4.93
2019-03-02T08:37:01.918Z,6.23
2019-03-02T08:39:28.781Z,5.35
2019-03-02T08:41:55.704Z,5.60
2019-03-02T08:44:22.767Z,4.80
2019-03-02T08:46:49.603Z,6.87
2019-03-02T08:49:16.962Z,5.10
2019-03-02T08:51:43.621Z,5.20
2019-03-02T08:54:10.547Z,5.00
2019-03-02T08:56:37.181Z,4.63
2019-03-02T08:59:03.836Z,5.90
2019-03-02T09:01:30.628Z,5.30
2019-03-02T09:03:57.312Z,4.70
2019-03-02T09:06:24.182Z,4.90
2019-03-02T09:08:50.829Z,6.30
2019-03-02T09:11:17.825Z,8.53
2019-03-02T09:13:44.720Z,6.03
2019-03-02T09:16:11.430Z,5.63
2019-03-02T09:18:45.332Z,5.30
2019-03-02T09:21:08.986Z,6.25
2019-03-02T09:23:37.106Z,7.27
2019-03-02T09:26:04.525Z,5.63
2019-03-02T09:28:32.085Z,5.40
2019-03-02T09:31:02.075Z,5.67
2019-03-02T09:33:28.773Z,5.30
2019-03-02T09:35:56.397Z,5.73
2019-03-02T09:38:23.330Z,5.78
2019-03-02T09:40:50.770Z,5.67
2019-03-02T09:43:17.573Z,6.03
2019-03-02T09:45:44.755Z,6.13
2019-03-02T09:48:12.692Z,5.70
2019-03-02T09:50:39.284Z,6.03
2019-03-02T09:53:05.957Z,5.62
2019-03-02T09:55:33.128Z,5.60
2019-03-02T09:57:59.859Z,5.92
2019-03-02T10:00:26.792Z,5.27
2019-03-02T10:02:53.705Z,5.35
2019-03-02T10:05:20.383Z,6.70
2019-03-02T10:07:47.887Z,7.67
2019-03-02T10:10:14.530Z,5.77
2019-03-02T10:12:41.478Z,5.40
2019-03-02T10:15:08.143Z,5.77
2019-03-02T10:17:38.495Z,5.67
2019-03-02T10:20:05.233Z,5.50
2019-03-02T10:22:32.277Z,5.90
2019-03-02T10:24:58.955Z,6.60
2019-03-02T10:27:25.977Z,6.03
2019-03-02T10:29:52.857Z,6.87
2019-03-02T10:32:20.009Z,5.33
2019-03-02T10:34:48.094Z,6.35
2019-03-02T10:37:14.885Z,6.67
2019-03-02T10:39:41.871Z,6.00
2019-03-02T10:42:13.432Z,6.27
2019-03-02T10:44:38.685Z,5.27
2019-03-02T10:47:05.544Z,6.67
2019-03-02T10:49:32.295Z,5.67
2019-03-02T10:52:02.831Z,6.95
2019-03-02T10:54:31.684Z,5.00
2019-03-02T10:56:59.833Z,4.97
2019-03-02T10:59:26.664Z,5.00
2019-03-02T11:01:53.576Z,5.20
2019-03-02T11:04:20.334Z,6.77
2019-03-02T11:06:49.402Z,5.50
2019-03-02T11:09:22.340Z,6.80
2019-03-02T11:11:44.869Z,5.47
2019-03-02T11:14:11.489Z,5.20
2019-03-02T11:16:38.532Z,5.80
2019-03-02T11:19:07.995Z,6.57
2019-03-02T11:21:35.524Z,5.35
2019-03-02T11:24:03.352Z,5.95
2019-03-02T11:26:30.674Z,5.20
2019-03-02T11:28:57.695Z,7.67
2019-03-02T11:31:25.641Z,5.72
2019-03-02T11:33:53.452Z,7.10
2019-03-02T11:36:20.968Z,6.65
2019-03-02T11:38:49.056Z,5.45
2019-03-02T11:41:15.840Z,6.10
2019-03-02T11:43:42.657Z,6.03
2019-03-02T11:46:09.285Z,5.60
2019-03-02T11:48:35.907Z,5.80
2019-03-02T11:51:03.555Z,6.65
2019-03-02T11:53:30.657Z,5.67
2019-03-02T11:56:09.511Z,7.67
2019-03-02T11:58:36.976Z,5.77
2019-03-02T12:01:06.549Z,6.80
2019-03-02T12:03:35.369Z,6.17
2019-03-02T12:06:05.988Z,6.73
2019-03-02T12:08:31.532Z,6.10
2019-03-02T12:10:58.417Z,5.90
2019-03-02T12:13:27.752Z,6.47
2019-03-02T12:15:54.307Z,6.78
2019-03-02T12:18:20.932Z,5.80
2019-03-02T12:20:47.894Z,6.37
2019-03-02T12:23:14.510Z,5.40
2019-03-02T12:25:42.032Z,5.67
2019-03-02T12:28:08.940Z,6.27
2019-03-02T12:30:36.158Z,5.83
2019-03-02T12:33:04.124Z,5.80
2019-03-02T12:35:34.451Z,6.80
2019-03-02T12:37:59.766Z,6.83
2019-03-02T12:40:26.585Z,5.93
2019-03-02T12:42:54.559Z,5.65
2019-03-02T12:45:21.262Z,6.17
2019-03-02T12:47:48.318Z,7.33
2019-03-02T12:50:18.914Z,6.27
2019-03-02T12:52:48.161Z,7.42
2019-03-02T12:55:16.394Z,7.25
2019-03-02T12:57:45.497Z,6.07
2019-03-02T13:00:10.598Z,6.03
2019-03-02T13:02:37.403Z,6.97
2019-03-02T13:05:06.573Z,7.95
2019-03-02T13:07:35.733Z,7.00
2019-03-02T13:10:02.625Z,7.57
2019-03-02T13:12:32.436Z,6.90
2019-03-02T13:14:59.675Z,7.62
2019-03-02T13:17:33.140Z,9.78
2019-03-02T13:20:02.745Z,6.93
2019-03-02T13:22:33.495Z,8.17
2019-03-02T13:25:03.579Z,6.60
2019-03-02T13:27:31.040Z,6.87
2019-03-02T13:29:59.869Z,7.97
2019-03-02T13:32:28.826Z,8.07
2019-03-02T13:35:00.497Z,7.80
2019-03-02T13:37:29.767Z,7.07
2019-03-02T13:39:56.943Z,8.53
2019-03-02T13:42:27.347Z,8.53
2019-03-02T13:45:00.322Z,7.55
2019-03-02T13:47:27.241Z,6.90
2019-03-02T13:49:55.341Z,8.20
2019-03-02T13:52:22.081Z,8.80
2019-03-02T13:54:50.889Z,8.43
2019-03-02T13:57:17.475Z,8.33
2019-03-02T13:59:46.199Z,8.63
2019-03-02T14:02:12.698Z,8.17
2019-03-02T14:04:39.561Z,7.73
2019-03-02T14:07:10.808Z,7.33
2019-03-02T14:09:37.974Z,7.70
2019-03-02T14:12:08.107Z,7.00
2019-03-02T14:14:41.092Z,7.83
2019-03-02T14:17:08.316Z,7.83
2019-03-02T14:19:42.018Z,8.40
2019-03-02T14:22:11.312Z,12.50
2019-03-02T14:24:38.911Z,9.70
2019-03-02T14:27:05.957Z,10.33
2019-03-02T14:29:42.960Z,9.00
2019-03-02T14:32:13.500Z,10.65
2019-03-02T14:34:40.273Z,10.95
2019-03-02T14:37:08.015Z,9.85
2019-03-02T14:39:38.065Z,10.70
2019-03-02T14:42:08.720Z,10.60
2019-03-02T14:44:39.500Z,9.80
2019-03-02T14:47:06.408Z,14.33
2019-03-02T14:49:34.068Z,11.90
2019-03-02T14:52:05.986Z,11.63
2019-03-02T14:54:34.018Z,10.90
2019-03-02T14:57:05.108Z,11.53
2019-03-02T14:59:34.703Z,10.27
2019-03-02T15:02:02.302Z,9.55
2019-03-02T15:04:31.268Z,10.47
2019-03-02T15:06:58.123Z,9.63
2019-03-02T15:09:26.277Z,11.97
2019-03-02T15:11:53.242Z,12.50
2019-03-02T15:14:20.467Z,9.53
2019-03-02T15:16:47.287Z,10.70
2019-03-02T15:19:15.995Z,10.23
2019-03-02T15:21:47.742Z,9.47
2019-03-02T15:24:14.995Z,10.13
2019-03-02T15:26:43.287Z,10.23
2019-03-02T15:29:25.085Z,9.70
2019-03-02T15:31:58.390Z,9.43
2019-03-02T15:34:24.735Z,12.23
2019-03-02T15:36:53.907Z,9.53
2019-03-02T15:39:22.810Z,9.53
2019-03-02T15:41:50.268Z,9.05
2019-03-02T15:44:22.685Z,9.13
2019-03-02T15:46:50.250Z,8.45
2019-03-02T15:49:18.262Z,12.90
2019-03-02T15:54:22.986Z,9.03
2019-03-02T15:56:49.286Z,8.80
2019-03-02T15:59:19.118Z,11.03
2019-03-02T16:01:45.521Z,9.23
2019-03-02T16:04:31.787Z,9.97
2019-03-02T16:06:54.981Z,9.70
2019-03-02T16:09:25.215Z,9.47
2019-03-02T16:11:50.332Z,8.45
2019-03-02T16:14:18.528Z,9.50
2019-03-02T16:16:45.450Z,10.60
2019-03-02T16:19:12.444Z,9.55
2019-03-02T16:21:41.619Z,9.00
2019-03-02T16:24:08.628Z,8.50
2019-03-02T16:26:37.111Z,8.57
2019-03-02T16:29:04.195Z,8.73
2019-03-02T16:31:34.247Z,9.20
2019-03-02T16:34:04.397Z,9.73
2019-03-02T16:36:29.419Z,11.77
2019-03-02T16:38:57.738Z,14.63
2019-03-02T16:41:27.226Z,13.00
2019-03-02T16:43:53.830Z,11.73
2019-03-02T16:46:22.858Z,13.40
2019-03-02T16:48:53.521Z,16.35
2019-03-02T16:51:20.584Z,11.97
2019-03-02T16:53:48.567Z,10.83
2019-03-02T16:56:17.070Z,12.45
2019-03-02T16:58:44.531Z,11.07
2019-03-02T17:01:11.158Z,11.53
2019-03-02T17:03:39.091Z,10.65
2019-03-02T17:06:11.177Z,10.03
2019-03-02T17:08:38.054Z,11.63
2019-03-02T17:11:07.042Z,20.05
2019-03-02T17:13:34.604Z,19.37
2019-03-02T17:16:03.306Z,20.30
2019-03-02T17:18:31.587Z,23.47
2019-03-02T17:20:58.318Z,21.67
2019-03-02T17:23:26.964Z,24.27
2019-03-02T17:25:53.841Z,22.07
2019-03-02T17:28:21.004Z,22.00
2019-03-02T17:30:53.088Z,23.33
2019-03-02T17:33:26.790Z,22.83
2019-03-02T17:35:50.534Z,22.03
2019-03-02T17:38:19.227Z,22.17
2019-03-02T17:40:46.110Z,21.70
2019-03-02T17:43:13.092Z,20.83
2019-03-02T17:45:40.012Z,23.73
2019-03-02T17:48:08.179Z,20.90
2019-03-02T17:50:36.083Z,22.47
2019-03-02T17:53:05.366Z,20.60
2019-03-02T17:55:32.203Z,23.23
2019-03-02T17:58:01.184Z,22.40
2019-03-02T18:00:30.753Z,23.00
2019-03-02T18:02:57.134Z,26.87
2019-03-02T18:05:24.085Z,25.17
2019-03-02T18:07:53.441Z,31.37
2019-03-02T18:10:22.764Z,25.13
2019-03-02T18:12:49.402Z,24.55
2019-03-02T18:15:16.472Z,24.43
2019-03-02T18:17:46.348Z,23.83
2019-03-02T18:20:15.993Z,24.63
2019-03-02T18:22:46.470Z,24.37
2019-03-02T18:25:17.029Z,27.07
2019-03-02T18:27:43.931Z,25.23
2019-03-02T18:30:10.515Z,26.77
2019-03-02T18:32:37.347Z,28.30
2019-03-02T18:35:07.924Z,23.45
2019-03-02T18:37:35.700Z,27.13
2019-03-02T18:40:03.968Z,23.13
2019-03-02T18:45:23.945Z,20.55
2019-03-02T18:47:54.351Z,24.83
2019-03-02T18:50:21.117Z,27.10
2019-03-02T18:52:53.699Z,24.12
2019-03-02T18:55:27.160Z,25.80
2019-03-02T18:57:55.901Z,23.40
2019-03-02T19:00:25.044Z,28.83
2019-03-02T19:02:54.828Z,21.40
2019-03-02T19:05:21.795Z,27.00
2019-03-02T19:07:51.006Z,26.30
2019-03-02T19:10:23.048Z,28.17
2019-03-02T19:12:50.669Z,29.03
2019-03-02T19:15:17.969Z,23.95
2019-03-02T19:17:49.499Z,26.20
2019-03-02T19:20:16.195Z,24.83
2019-03-02T19:22:45.194Z,26.63
2019-03-02T19:25:15.014Z,25.03
2019-03-02T19:27:41.907Z,21.40
2019-03-02T19:30:09.027Z,21.67
2019-03-02T19:32:38.915Z,24.18
2019-03-02T19:35:08.564Z,21.07
2019-03-02T19:37:40.223Z,23.60
2019-03-02T19:40:09.127Z,20.47
2019-03-02T19:42:36.561Z,21.20
2019-03-02T19:45:03.248Z,21.77
2019-03-02T19:47:32.603Z,24.35
2019-03-02T19:50:01.325Z,27.83
2019-03-02T19:52:27.950Z,23.57
2019-03-02T19:54:57.589Z,24.15
2019-03-02T19:57:24.253Z,24.98
2019-03-02T19:59:52.231Z,24.77
2019-03-02T20:02:22.433Z,28.23
2019-03-02T20:04:51.457Z,23.97
2019-03-02T20:07:21.596Z,21.43
2019-03-02T20:09:50.803Z,22.62
2019-03-02T20:12:19.161Z,23.83
2019-03-02T20:14:45.873Z,25.53
2019-03-02T20:17:14.667Z,21.20
2019-03-02T20:19:43.183Z,22.52
2019-03-02T20:22:12.218Z,25.23
2019-03-02T20:24:43.180Z,25.00
2019-03-02T20:27:10.149Z,23.87
2019-03-02T20:29:40.159Z,20.77
2019-03-02T20:32:07.571Z,23.43
2019-03-02T20:34:36.648Z,23.67
2019-03-02T20:37:06.231Z,26.80
2019-03-02T20:39:51.287Z,25.17
2019-03-02T20:42:21.210Z,23.30
2019-03-02T20:44:48.547Z,22.07
2019-03-02T20:47:18.309Z,23.77
2019-03-02T20:49:45.626Z,26.75
2019-03-02T20:52:16.554Z,24.47
2019-03-02T20:54:45.823Z,24.17
2019-03-02T20:57:14.538Z,29.93
2019-03-02T20:59:42.428Z,27.13
2019-03-02T21:02:09.335Z,28.37
2019-03-02T21:04:36.993Z,31.43
2019-03-02T21:07:04.055Z,31.73
2019-03-02T21:09:30.772Z,29.50
2019-03-02T21:11:57.577Z,28.60
2019-03-02T21:14:24.799Z,22.50
2019-03-02T21:16:51.744Z,23.10
2019-03-02T21:19:19.040Z,26.05
2019-03-02T21:21:45.821Z,29.80
2019-03-02T21:24:13.093Z,21.45
2019-03-02T21:26:41.595Z,22.15
2019-03-02T21:29:08.257Z,22.03
2019-03-02T21:31:35.057Z,20.93
2019-03-02T21:34:01.986Z,23.33
2019-03-02T21:36:28.595Z,23.30
2019-03-02T21:38:55.447Z,24.43
2019-03-02T21:41:22.524Z,25.73
2019-03-02T21:43:49.136Z,23.17
2019-03-02T21:46:16.112Z,21.97
2019-03-02T21:48:43.422Z,21.90
2019-03-02T21:51:11.600Z,21.87
2019-03-02T21:53:38.387Z,22.93
2019-03-02T21:56:05.272Z,23.40
2019-03-02T21:58:31.865Z,21.00
2019-03-02T22:00:58.597Z,20.40
2019-03-02T22:03:25.509Z,19.27
2019-03-02T22:05:52.374Z,25.10
2019-03-02T22:08:20.129Z,21.55
2019-03-02T22:10:46.788Z,24.43
2019-03-02T22:13:13.478Z,21.80
2019-03-02T22:15:41.515Z,21.87
2019-03-02T22:18:08.190Z,24.87
2019-03-02T22:20:34.900Z,19.10
2019-03-02T22:23:01.515Z,20.03
2019-03-02T22:25:28.260Z,21.30
2019-03-02T22:27:54.996Z,22.20
2019-03-02T22:30:22.227Z,22.93
2019-03-02T22:32:49.083Z,20.63
2019-03-02T22:35:15.689Z,22.10
2019-03-02T22:37:42.599Z,22.70
2019-03-02T22:40:09.314Z,25.43
2019-03-02T22:42:36.467Z,26.50
2019-03-02T22:45:03.690Z,25.60
2019-03-02T22:47:30.662Z,23.60
2019-03-02T22:49:57.362Z,22.47
2019-03-02T22:52:24.003Z,26.47
2019-03-02T22:54:50.698Z,21.87
2019-03-02T22:57:17.617Z,22.60
2019-03-02T22:59:44.493Z,23.23
2019-03-02T23:02:12.378Z,21.90
2019-03-02T23:04:39.165Z,20.80
2019-03-02T23:07:05.884Z,22.13
2019-03-02T23:09:32.593Z,22.73
2019-03-02T23:11:59.232Z,23.03
2019-03-02T23:14:26.167Z,24.60
2019-03-02T23:16:55.127Z,27.30
2019-03-02T23:19:21.513Z,24.90
2019-03-02T23:21:48.803Z,25.40
2019-03-02T23:24:15.527Z,21.53
2019-03-02T23:26:43.950Z,26.66
2019-03-02T23:29:10.739Z,22.80
2019-03-02T23:31:37.636Z,21.33
2019-03-02T23:34:04.400Z,20.87
2019-03-02T23:36:31.019Z,22.63
2019-03-02T23:38:58.063Z,26.42
2019-03-02T23:41:25.078Z,23.60
2019-03-02T23:43:51.944Z,21.70
2019-03-02T23:46:18.830Z,26.63
2019-03-02T23:48:46.169Z,22.15
2019-03-02T23:51:14.312Z,24.15
2019-03-02T23:53:41.022Z,21.03
2019-03-02T23:56:07.973Z,23.65
2019-03-02T23:58:34.665Z,28.03
